KFSM METAR and TAF | Updated Today

KFSM METAR

Fort Smith Regional Airport

Observation time: 8 min. ago

KFSM 301753Z 05004KT 10SM R25/4000VP6000FT CLR 18/07 A3008 RMK AO2 SLP185 T01780072 10178 20044 58009

Need help? Read our tutorial on how to read METARs or read the parsed version below.

Fort Smith Regional Airport (KFSM) METAR

  • Weather conditions on Tue, 30 Nov 2021 17:53:00 +0000 (8 min. ago):
  • Present conditions: Dry
  • Clouds: Clear skies
  • Visibility: 16093 meters
  • Wind: 50 degrees at 4 knots
  • Temperature: 18 celsius
  • Dew point: 7 celsius
  • Pressure: 30.08 inHg
  • Remarks: AO2 SLP185 T01780072 10178 20044 58009


Useful to know...

KFSM TAF

Fort Smith Regional Airport

KFSM 301720Z 3018/0118 VRB04KT P6SM SKC
Observation time: 41 min. ago
Need help? Read our tutorial on how to read TAFs or read the parsed version below.

Parsed version of TAF for Fort Smith Regional Airport (KFSM)

  • From 30 November at 18:00 UTC, to day 01 of the month at 18:00 UTC
  • Clouds: No significant changes expected
  • Wind: Variable at 4